Sierra, Nevada
Current Conditions -  °F | °C
As of 2:55 PM on Saturday 25 Oct 2014 (Local Time) from KRTS Reporting Station
Clear Clear  
Wind Chill: 50°   Ceiling: Unl
Heat Index: 50°   Visibility: 10mi
Dew Point: 32°   Wind: 23mph
Humidity: 50%   Direction: 240°WSW
Pressure: 30.01"   Gusts: 33mph
Location:  39.7378°N, 119.889°W
Report Text: KRTS 252155Z AUTO 24020G29KT 210V270 10SM CLR 10/00 A3001 RMK AO2
Loading
Personal Weather Stations






























Interactive Weather Map
Tropical Storm Tracking
New forecast layout! Learn more

10-Day Weather Forecast

Advertisements
Track Severe Weather on mobile